Turnhout, Belgium
Current Conditions -  °F | °C
As of 10:55 AM on Saturday 25 Oct 2014 (Local Time) from EHGR Reporting Station
Haze Haze  
Wind Chill: 55°   Ceiling: 300
Heat Index: 55°   Visibility: 0.87mi
Dew Point: 55°   Wind: 7mph
Humidity: 100%   Direction: 210°SSW
Pressure: 30.06"   Gusts: NA
Location:  51.32°N, 4.94°E
Report Text: EHGR 250855Z AUTO 21006KT 1400 BR OVC003 13/13 Q1018 AMB
Loading
Personal Weather Stations






























Interactive Weather Map
Tropical Storm Tracking
New forecast layout! Learn more

10-Day Weather Forecast

Advertisements
Track Severe Weather on mobile